Time;durP1;ratioP1;P1;durP2;ratioP2;P2;SDS_P1;SDS_P2;PMS_P1;PMS_P2;Temp;Humidity;BMP_temperature;BMP_pressure;BME280_temperature;BME280_humidity;BME280_pressure;Samples;Min_cycle;Max_cycle;Signal;HPM_P1;HPM_P2
2022/09/23 00:00:22;;;;;;;5.38;2.05;;;;;;;12.02;100.00;94936.81;4963211;28;20349;-88
2022/09/23 00:02:48;;;;;;;7.13;2.50;;;;;;;12.06;100.00;94923.94;4963137;28;20031;-88
2022/09/23 00:05:14;;;;;;;5.47;2.42;;;;;;;11.93;100.00;94925.25;4947351;28;20451;-88
2022/09/23 00:07:40;;;;;;;6.10;2.30;;;;;;;11.92;100.00;94928.13;4963165;28;20023;-88
2022/09/23 00:10:06;;;;;;;5.93;1.92;;;;;;;11.91;100.00;94922.09;4963008;28;20038;-89
2022/09/23 00:12:32;;;;;;;5.88;2.00;;;;;;;12.38;100.00;94915.00;4962945;28;20033;-88
2022/09/23 00:14:58;;;;;;;3.35;2.17;;;;;;;12.02;100.00;94915.03;4963006;28;20392;-88
2022/09/23 00:17:23;;;;;;;2.60;1.90;;;;;;;11.99;100.00;94910.28;4962816;28;20030;-88
2022/09/23 00:19:48;;;;;;;7.75;2.33;;;;;;;12.44;100.00;94918.41;4963057;28;20106;-88
2022/09/23 00:22:15;;;;;;;4.25;2.30;;;;;;;12.76;100.00;94914.66;4978013;28;20031;-88
2022/09/23 00:24:40;;;;;;;2.92;2.13;;;;;;;12.88;98.30;94919.66;4963059;28;20049;-89
2022/09/23 00:27:07;;;;;;;3.58;2.08;;;;;;;12.79;97.83;94923.88;4947294;28;20023;-88
2022/09/23 00:29:32;;;;;;;4.82;2.28;;;;;;;12.96;95.79;94920.94;4962684;28;20023;-88
2022/09/23 00:31:58;;;;;;;4.30;2.20;;;;;;;12.80;95.24;94918.34;4962702;28;20503;-89
2022/09/23 00:34:23;;;;;;;2.88;1.85;;;;;;;12.98;93.74;94914.34;4962759;28;20023;-89
2022/09/23 00:36:49;;;;;;;4.32;1.92;;;;;;;12.98;91.94;94916.19;4962378;28;20031;-89
2022/09/23 00:39:14;;;;;;;3.15;2.20;;;;;;;12.97;91.87;94914.63;4962679;28;20034;-89
2022/09/23 00:41:40;;;;;;;6.45;2.35;;;;;;;13.01;93.05;94910.38;4962393;28;20033;-88
2022/09/23 00:44:43;;;;;;;4.68;2.42;;;;;;;13.12;92.67;94913.75;4962439;28;20029;-88
2022/09/23 00:47:21;;;;;;;4.55;2.00;;;;;;;13.11;90.55;94907.72;4961777;28;20030;-88
2022/09/23 00:50:23;;;;;;;4.65;2.13;;;;;;;13.22;88.78;94902.44;4979548;28;20054;-88
2022/09/23 00:52:49;;;;;;;4.78;2.40;;;;;;;12.87;93.48;94897.81;4949211;28;20093;-88
2022/09/23 00:55:24;;;;;;;3.80;1.75;;;;;;;12.92;96.37;94898.88;4946114;28;20033;-89
2022/09/23 00:57:54;;;;;;;2.92;1.85;;;;;;;12.76;98.60;94903.38;4946376;28;20035;-88
2022/09/23 01:00:21;;;;;;;11.05;1.95;;;;;;;12.32;100.00;94896.88;4946486;28;20328;-89
2022/09/23 01:02:46;;;;;;;7.65;1.80;;;;;;;12.45;99.15;94893.69;4962324;28;20497;-91
2022/09/23 01:05:12;;;;;;;4.57;2.38;;;;;;;12.39;100.00;94894.78;4961968;28;20033;-91
2022/09/23 01:07:38;;;;;;;3.60;2.00;;;;;;;12.49;98.22;94897.41;4961796;28;20029;-91
2022/09/23 01:10:04;;;;;;;6.88;2.30;;;;;;;12.41;99.59;94900.56;4962000;28;20436;-91
2022/09/23 01:13:08;;;;;;;4.85;2.70;;;;;;;12.42;99.54;94896.88;4961914;28;20425;-91
2022/09/23 01:15:55;;;;;;;6.90;2.72;;;;;;;11.97;100.00;94894.78;4935999;28;20074;-91
2022/09/23 01:18:47;;;;;;;3.83;2.20;;;;;;;12.30;99.12;94892.66;4961719;28;20042;-90
2022/09/23 01:21:34;;;;;;;3.78;2.13;;;;;;;12.05;100.00;94887.44;4958031;28;20085;-90
2022/09/23 01:24:21;;;;;;;6.45;2.33;;;;;;;12.36;97.97;94887.44;4962017;28;20027;-90
2022/09/23 01:27:08;;;;;;;3.47;2.22;;;;;;;12.07;98.82;94888.75;4978715;28;20022;-90
2022/09/23 01:30:05;;;;;;;5.80;2.38;;;;;;;12.09;100.00;94889.28;4961489;28;20106;-91
2022/09/23 01:32:53;;;;;;;3.45;2.22;;;;;;;11.69;100.00;94881.09;4978251;28;20022;-92
2022/09/23 01:35:18;;;;;;;5.22;2.08;;;;;;;11.90;100.00;94875.84;4961542;28;20031;-90
2022/09/23 01:38:10;;;;;;;8.07;2.75;;;;;;;11.99;100.00;94878.75;4961623;28;20349;-90
2022/09/23 01:40:52;;;;;;;3.65;2.47;;;;;;;11.74;100.00;94875.06;4945780;28;20023;-91
2022/09/23 01:43:29;;;;;;;5.68;2.35;;;;;;;12.08;100.00;94882.44;4961500;28;20451;-91
2022/09/23 01:45:58;;;;;;;5.90;2.20;;;;;;;12.20;100.00;94882.19;4945643;28;20037;-90
2022/09/23 01:48:54;;;;;;;5.68;2.40;;;;;;;12.17;97.72;94880.06;4961184;28;20109;-90
2022/09/23 01:51:24;;;;;;;5.07;2.45;;;;;;;12.01;98.85;94880.09;4959409;28;20046;-91
2022/09/23 01:54:01;;;;;;;7.35;2.50;;;;;;;12.06;100.00;94881.16;4961771;28;20058;-91
2022/09/23 01:56:50;;;;;;;4.95;2.47;;;;;;;11.72;100.00;94890.31;4961383;28;20089;-91
2022/09/23 01:59:20;;;;;;;4.95;2.70;;;;;;;11.93;100.00;94888.47;4961271;28;20027;-91
2022/09/23 02:02:04;;;;;;;3.75;2.53;;;;;;;12.12;100.00;94895.84;4961143;28;20034;-91
2022/09/23 02:04:44;;;;;;;6.97;2.95;;;;;;;12.09;100.00;94891.91;4960883;28;20037;-91
2022/09/23 02:07:20;;;;;;;5.20;3.00;;;;;;;11.59;100.00;94894.19;4961528;28;20417;-89
2022/09/23 02:09:53;;;;;;;13.07;2.83;;;;;;;11.97;100.00;94892.16;4961330;28;20081;-91
2022/09/23 02:12:20;;;;;;;5.50;2.40;;;;;;;12.05;100.00;94898.75;4960940;28;20428;-91
2022/09/23 02:15:08;;;;;;;4.55;2.53;;;;;;;12.02;98.79;94889.53;4945078;28;20037;-90
2022/09/23 02:17:38;;;;;;;3.45;2.70;;;;;;;11.97;100.00;94881.63;4960665;28;20062;-91
2022/09/23 02:20:06;;;;;;;5.93;2.70;;;;;;;11.34;100.00;94890.50;4960950;28;20027;-91
2022/09/23 02:22:51;;;;;;;4.88;2.58;;;;;;;11.83;100.00;94883.97;4960723;28;20118;-91
2022/09/23 02:25:18;;;;;;;7.03;3.00;;;;;;;11.86;100.00;94872.97;4977085;28;20055;-90
2022/09/23 02:31:18;;;;;;;5.10;2.30;;;;;;;11.76;100.00;94877.41;4977947;28;20078;-90
2022/09/23 02:33:56;;;;;;;7.43;2.33;;;;;;;12.01;100.00;94872.22;4944751;28;20085;-91
2022/09/23 02:36:31;;;;;;;6.32;2.38;;;;;;;12.16;98.23;94873.25;4944709;28;20463;-91
2022/09/23 02:39:01;;;;;;;4.28;2.55;;;;;;;11.64;100.00;94877.69;4944755;28;20353;-91
2022/09/23 02:41:45;;;;;;;3.88;2.25;;;;;;;11.75;100.00;94868.78;4960573;28;20488;-91
2022/09/23 02:44:13;;;;;;;3.60;2.08;;;;;;;11.40;100.00;94870.28;4960464;28;20046;-91
2022/09/23 02:46:42;;;;;;;6.43;2.60;;;;;;;11.07;100.00;94867.88;4964336;28;20053;-91
2022/09/23 02:49:11;;;;;;;6.20;3.03;;;;;;;11.10;100.00;94869.97;4965084;28;20026;-91
2022/09/23 02:51:38;;;;;;;3.80;2.38;;;;;;;11.17;100.00;94865.25;4964300;28;20033;-91
2022/09/23 02:54:06;;;;;;;4.25;2.20;;;;;;;11.60;100.00;94867.72;4948516;28;20488;-90
2022/09/23 02:56:32;;;;;;;4.00;2.05;;;;;;;11.54;100.00;94866.13;4964604;28;20022;-92
2022/09/23 02:58:57;;;;;;;3.25;2.20;;;;;;;11.14;100.00;94868.41;4964680;28;20026;-91
2022/09/23 03:01:51;;;;;;;3.83;2.20;;;;;;;11.57;100.00;94870.88;4948279;28;20027;-91
2022/09/23 03:04:38;;;;;;;3.88;2.45;;;;;;;11.52;100.00;94864.81;4981410;28;20037;-92
2022/09/23 03:10:37;;;;;;;3.97;2.17;;;;;;;11.36;100.00;94861.38;4981288;28;20076;-91
2022/09/23 03:13:27;;;;;;;4.03;2.22;;;;;;;11.51;100.00;94865.88;4964207;28;20026;-91
2022/09/23 03:16:04;;;;;;;5.22;2.22;;;;;;;11.46;100.00;94858.78;4964142;28;20505;-90
2022/09/23 03:18:36;;;;;;;4.57;2.58;;;;;;;11.44;100.00;94866.88;4963895;28;20058;-91
2022/09/23 03:21:05;;;;;;;3.33;2.40;;;;;;;11.54;99.84;94862.72;4963904;28;20065;-91
2022/09/23 03:23:36;;;;;;;5.20;2.08;;;;;;;10.96;100.00;94856.53;4964289;28;20066;-91
2022/09/23 03:26:09;;;;;;;5.28;2.60;;;;;;;10.90;100.00;94860.19;4963971;28;20085;-91
2022/09/23 03:28:35;;;;;;;4.93;2.20;;;;;;;10.96;100.00;94858.38;4947837;28;20053;-92
2022/09/23 03:31:01;;;;;;;3.17;2.17;;;;;;;11.14;100.00;94863.16;4964008;28;20070;-91
2022/09/23 03:33:27;;;;;;;3.53;2.08;;;;;;;10.74;100.00;94867.19;4963586;28;20081;-90
2022/09/23 03:38:44;;;;;;;6.55;2.20;;;;;;;10.67;100.00;94859.56;4966624;28;20067;-90
2022/09/23 03:41:10;;;;;;;8.30;2.53;;;;;;;11.20;100.00;94858.72;4948095;28;20029;-90
2022/09/23 03:43:37;;;;;;;8.80;2.72;;;;;;;11.40;100.00;94854.53;4947349;28;20066;-90
2022/09/23 03:46:02;;;;;;;7.97;2.50;;;;;;;11.46;100.00;94856.91;4946815;28;20022;-91
2022/09/23 03:48:27;;;;;;;6.07;2.67;;;;;;;11.08;100.00;94847.66;4947659;28;20343;-91
2022/09/23 03:50:53;;;;;;;5.38;2.97;;;;;;;11.29;100.00;94848.50;4963250;28;20030;-91
2022/09/23 03:53:21;;;;;;;3.45;2.38;;;;;;;11.49;100.00;94845.13;4963352;28;20432;-91
2022/09/23 03:55:53;;;;;;;6.35;2.67;;;;;;;11.24;100.00;94845.88;4947080;28;20034;-92
2022/09/23 03:58:19;;;;;;;7.63;2.30;;;;;;;11.40;100.00;94841.44;4963138;28;20062;-91
2022/09/23 04:00:45;;;;;;;7.43;2.95;;;;;;;11.42;100.00;94844.59;4947293;28;20129;-91
2022/09/23 04:03:10;;;;;;;3.65;2.25;;;;;;;11.17;100.00;94839.03;4963330;28;20027;-91
2022/09/23 04:05:36;;;;;;;5.22;2.60;;;;;;;11.40;100.00;94841.44;4947152;28;20029;-90
2022/09/23 04:08:01;;;;;;;5.90;2.47;;;;;;;11.31;100.00;94838.53;4947470;28;20019;-91
2022/09/23 04:10:27;;;;;;;6.32;2.78;;;;;;;10.94;100.00;94832.41;4947365;28;20033;-91
2022/09/23 04:12:52;;;;;;;4.10;2.60;;;;;;;10.72;100.00;94830.78;4963045;28;20540;-91
2022/09/23 04:15:17;;;;;;;5.22;3.13;;;;;;;10.46;100.00;94837.72;4947461;28;20027;-91
2022/09/23 04:17:43;;;;;;;3.65;2.60;;;;;;;10.52;100.00;94834.09;4946961;28;20031;-91
2022/09/23 04:20:08;;;;;;;7.50;3.13;;;;;;;10.48;100.00;94838.28;4962984;28;20033;-91
2022/09/23 04:22:34;;;;;;;4.35;2.95;;;;;;;10.42;100.00;94839.28;4963192;28;20033;-91
2022/09/23 04:24:59;;;;;;;9.30;3.00;;;;;;;10.53;100.00;94843.53;4946864;28;20417;-90
2022/09/23 04:27:25;;;;;;;7.25;3.22;;;;;;;10.62;100.00;94837.81;4962760;28;20019;-90
2022/09/23 04:29:50;;;;;;;5.10;2.80;;;;;;;10.63;100.00;94829.69;4946988;28;20031;-91
2022/09/23 04:32:16;;;;;;;5.00;2.90;;;;;;;10.89;100.00;94832.41;4946738;28;20080;-90
2022/09/23 04:34:42;;;;;;;4.50;2.67;;;;;;;10.76;100.00;94831.06;4946700;28;20073;-90
2022/09/23 04:37:07;;;;;;;5.00;3.00;;;;;;;10.49;100.00;94832.00;4962542;28;20053;-91
2022/09/23 04:39:32;;;;;;;7.28;2.83;;;;;;;10.38;100.00;94831.09;4962556;28;20027;-91
2022/09/23 04:41:58;;;;;;;5.15;2.35;;;;;;;10.54;100.00;94836.44;4962515;28;20019;-91
2022/09/23 04:44:26;;;;;;;4.28;2.30;;;;;;;10.82;100.00;94824.78;4962447;28;20033;-90
2022/09/23 04:46:52;;;;;;;4.97;2.65;;;;;;;10.81;100.00;94825.81;4962597;28;20322;-90
2022/09/23 04:49:18;;;;;;;5.43;2.38;;;;;;;10.41;100.00;94838.50;4946326;28;20023;-90
2022/09/23 04:51:43;;;;;;;5.47;2.70;;;;;;;10.41;100.00;94840.31;4946290;28;20121;-90
2022/09/23 04:54:10;;;;;;;10.00;3.50;;;;;;;10.84;100.00;94825.31;4962299;28;20451;-89
2022/09/23 04:56:36;;;;;;;6.90;2.75;;;;;;;10.81;100.00;94825.81;4962037;28;20050;-90
2022/09/23 04:59:01;;;;;;;6.38;3.30;;;;;;;10.52;100.00;94834.09;4946180;28;20057;-89
2022/09/23 05:01:29;;;;;;;2.92;2.20;;;;;;;11.12;100.00;94835.63;4962230;28;20027;-91
2022/09/23 05:04:01;;;;;;;7.00;2.30;;;;;;;11.13;100.00;94845.84;4946174;28;20030;-90
2022/09/23 05:06:28;;;;;;;5.20;2.13;;;;;;;10.92;100.00;94831.88;4962124;28;20038;-93
2022/09/23 05:09:29;;;;;;;2.85;1.90;;;;;;;11.37;90.37;94834.88;5018242;27;1603461;-93
2022/09/23 05:11:55;;;;;;;2.25;1.90;;;;;;;11.71;85.55;94825.72;5040059;28;20024;-92
2022/09/23 05:14:21;;;;;;;4.78;1.90;;;;;;;11.65;86.61;94835.44;5039902;28;20020;-93
2022/09/23 05:20:09;;;;;;;7.40;1.88;;;;;;;11.24;94.63;94833.53;5074194;28;20457;-93
2022/09/23 05:22:35;;;;;;;4.93;1.85;;;;;;;11.14;93.50;94833.53;5039880;28;20028;-93
2022/09/23 05:25:03;;;;;;;4.47;1.80;;;;;;;10.86;97.41;94827.69;5039866;28;20441;-95
2022/09/23 05:27:28;;;;;;;3.45;1.90;;;;;;;10.87;100.00;94830.03;5040009;28;20338;-94
2022/09/23 05:29:54;;;;;;;2.70;1.80;;;;;;;10.59;100.00;94836.47;5039798;28;20031;-94
2022/09/23 05:32:20;;;;;;;2.58;1.63;;;;;;;10.78;100.00;94836.03;5039639;28;20063;-94
2022/09/23 05:34:45;;;;;;;3.08;1.90;;;;;;;10.81;100.00;94833.69;5039752;28;20033;-93
2022/09/23 05:37:10;;;;;;;6.20;1.70;;;;;;;10.89;100.00;94837.66;5056036;28;20028;-94
2022/09/23 05:39:36;;;;;;;3.03;1.60;;;;;;;10.69;100.00;94841.78;5039552;28;20021;-94
2022/09/23 05:42:02;;;;;;;2.78;1.70;;;;;;;10.96;100.00;94822.44;5056050;28;20032;-94
2022/09/23 05:44:28;;;;;;;3.10;1.60;;;;;;;11.30;100.00;94837.75;5055907;28;20050;-93
2022/09/23 05:46:53;;;;;;;5.43;2.20;;;;;;;11.11;100.00;94834.81;5039382;28;20430;-94
2022/09/23 05:49:19;;;;;;;2.85;1.65;;;;;;;11.50;100.00;94840.69;5039325;28;20036;-94
2022/09/23 05:51:44;;;;;;;9.07;1.75;;;;;;;11.69;100.00;94833.84;5039484;28;20461;-94
2022/09/23 05:54:10;;;;;;;3.05;1.50;;;;;;;12.01;95.79;94837.28;5039373;28;20078;-94
2022/09/23 05:56:36;;;;;;;11.15;1.58;;;;;;;12.26;91.96;94833.84;5039325;28;20020;-94
2022/09/23 05:59:02;;;;;;;2.75;1.70;;;;;;;12.47;90.33;94836.41;5055729;28;20457;-93
2022/09/23 06:01:34;;;;;;;7.63;1.80;;;;;;;12.14;97.58;94828.88;5039126;28;20032;-94
2022/09/23 06:04:00;;;;;;;2.53;1.80;;;;;;;12.09;96.64;94842.00;5039665;28;20021;-94
2022/09/23 06:06:51;;;;;;;2.70;1.60;;;;;;;12.67;92.02;94840.81;5039186;28;20449;-94
2022/09/23 06:09:17;;;;;;;2.05;1.55;;;;;;;12.71;89.05;94838.44;5055672;28;20036;-93
2022/09/23 06:11:42;;;;;;;2.72;1.35;;;;;;;12.89;87.50;94841.53;5039075;28;20540;-93
2022/09/23 06:14:10;;;;;;;4.47;1.70;;;;;;;13.11;85.58;94839.31;5039133;28;20081;-93
2022/09/23 06:16:36;;;;;;;4.03;1.27;;;;;;;13.15;84.92;94842.97;5038982;28;20047;-93
2022/09/23 06:19:04;;;;;;;6.43;1.80;;;;;;;13.54;83.20;94841.44;5035880;28;20029;-94
2022/09/23 06:21:30;;;;;;;6.28;2.40;;;;;;;13.64;81.87;94835.34;5025966;28;20029;-94
2022/09/23 06:23:59;;;;;;;3.28;1.67;;;;;;;13.68;83.44;94828.47;5025787;28;20051;-93
2022/09/23 06:26:25;;;;;;;2.78;1.80;;;;;;;14.02;82.47;94837.41;5025743;28;20033;-93
2022/09/23 06:28:50;;;;;;;6.10;1.40;;;;;;;14.22;82.75;94843.56;5025369;28;20033;-94
2022/09/23 06:31:15;;;;;;;3.10;1.75;;;;;;;14.34;82.66;94832.63;5025353;28;20035;-93
2022/09/23 06:33:42;;;;;;;3.35;1.40;;;;;;;14.37;84.06;94840.78;5042003;28;20029;-93
2022/09/23 06:36:08;;;;;;;1.98;1.50;;;;;;;14.54;84.11;94840.34;5025251;28;20496;-93
2022/09/23 06:38:38;;;;;;;2.28;1.25;;;;;;;14.64;85.08;94828.88;5025132;28;20333;-93
2022/09/23 06:41:03;;;;;;;2.72;1.48;;;;;;;14.47;85.95;94831.19;5025190;28;20029;-93
2022/09/23 06:43:29;;;;;;;4.35;1.85;;;;;;;14.56;88.83;94832.94;5041509;28;20115;-93
2022/09/23 06:45:56;;;;;;;2.15;1.40;;;;;;;14.88;86.57;94829.97;5041356;28;20025;-94
2022/09/23 06:48:25;;;;;;;3.17;1.50;;;;;;;14.93;86.63;94825.41;5025040;28;20493;-94
2022/09/23 06:50:52;;;;;;;3.40;1.52;;;;;;;15.04;87.61;94823.41;5025447;28;20107;-93
2022/09/23 06:53:18;;;;;;;3.20;1.60;;;;;;;15.20;87.80;94823.22;5025367;28;20345;-92
2022/09/23 06:55:44;;;;;;;3.03;1.70;;;;;;;15.29;87.15;94820.75;5041464;28;20025;-93
2022/09/23 06:58:09;;;;;;;6.65;1.60;;;;;;;15.45;87.09;94821.28;5024903;28;20070;-92
2022/09/23 07:00:35;;;;;;;4.03;1.83;;;;;;;15.18;87.77;94814.78;5041154;28;20028;-93
2022/09/23 07:03:07;;;;;;;2.60;1.42;;;;;;;15.50;88.73;94818.59;5024879;28;20025;-93
2022/09/23 07:05:33;;;;;;;7.82;1.58;;;;;;;15.30;91.98;94817.78;5024834;28;20099;-93
2022/09/23 07:07:59;;;;;;;4.05;1.77;;;;;;;15.35;91.11;94817.75;5024325;28;20037;-93
2022/09/23 07:10:27;;;;;;;2.60;1.80;;;;;;;15.49;90.79;94822.28;5025003;28;20406;-91
2022/09/23 07:12:54;;;;;;;2.85;1.73;;;;;;;15.56;90.14;94825.34;5024908;28;20040;-91
2022/09/23 07:15:19;;;;;;;3.55;1.83;;;;;;;15.61;85.76;94829.78;5024641;28;20068;-90
2022/09/23 07:18:25;;;;;;;2.35;1.60;;;;;;;15.92;82.06;94830.13;5040874;28;20392;-90
2022/09/23 07:20:52;;;;;;;4.32;1.90;;;;;;;15.80;81.22;94835.03;5040934;28;20028;-91
2022/09/23 07:23:17;;;;;;;3.50;1.80;;;;;;;15.81;79.93;94832.09;5024409;28;20426;-90
2022/09/23 07:25:45;;;;;;;3.00;1.90;;;;;;;15.92;77.50;94838.03;5024523;28;20028;-91
2022/09/23 07:28:11;;;;;;;3.83;1.40;;;;;;;16.10;77.48;94835.63;5024556;28;20403;-91
2022/09/23 07:30:38;;;;;;;3.15;1.65;;;;;;;16.29;76.09;94840.88;5023694;28;20068;-91
2022/09/23 07:33:04;;;;;;;4.15;1.70;;;;;;;16.20;77.13;94840.72;5023759;28;20098;-91
2022/09/23 07:35:29;;;;;;;1.60;1.30;;;;;;;16.24;79.11;94840.94;5024165;28;20064;-91
2022/09/23 07:37:54;;;;;;;2.90;1.50;;;;;;;16.36;80.54;94851.06;5024240;28;20434;-91
2022/09/23 07:40:20;;;;;;;1.70;1.30;;;;;;;16.35;80.67;94850.25;5040699;28;20024;-91
2022/09/23 07:42:46;;;;;;;2.63;1.60;;;;;;;16.02;83.98;94857.44;5040351;28;20382;-92
2022/09/23 07:45:12;;;;;;;4.70;1.52;;;;;;;16.49;82.14;94854.78;5024034;28;20353;-91
2022/09/23 07:48:13;;;;;;;2.38;1.35;;;;;;;16.72;81.92;94858.31;5023864;28;20029;-91
2022/09/23 07:50:39;;;;;;;3.70;1.45;;;;;;;16.92;80.41;94864.28;5040577;28;20035;-91
2022/09/23 07:53:06;;;;;;;4.25;1.40;;;;;;;16.88;78.50;94860.66;5024134;28;20029;-91
2022/09/23 07:55:31;;;;;;;8.02;1.30;;;;;;;17.00;79.40;94858.34;5040738;28;20032;-91
2022/09/23 07:57:56;;;;;;;2.17;1.15;;;;;;;16.98;77.21;94864.97;5023963;28;20434;-91
2022/09/23 08:00:22;;;;;;;2.65;1.10;;;;;;;16.70;75.06;94862.31;5023822;28;20033;-90
2022/09/23 08:02:47;;;;;;;3.05;1.30;;;;;;;16.93;79.00;94863.22;5024044;28;20029;-92
2022/09/23 08:05:13;;;;;;;1.83;1.08;;;;;;;17.13;74.56;94864.69;5024020;28;20028;-91
2022/09/23 08:07:38;;;;;;;3.10;1.20;;;;;;;17.19;68.88;94862.72;5039957;28;20082;-92
2022/09/23 08:10:06;;;;;;;2.58;1.20;;;;;;;17.28;68.27;94860.94;5039964;28;20345;-92
2022/09/23 08:12:31;;;;;;;4.05;1.02;;;;;;;17.36;66.91;94875.34;5023742;28;20033;-91
2022/09/23 08:14:59;;;;;;;1.88;1.15;;;;;;;17.18;71.30;94866.44;5023744;28;20031;-92
2022/09/23 08:17:32;;;;;;;1.88;1.10;;;;;;;17.43;71.63;94865.16;5023683;28;20028;-91
2022/09/23 08:19:57;;;;;;;2.88;0.98;;;;;;;17.64;67.53;94860.16;5040793;28;20111;-90
2022/09/23 08:22:23;;;;;;;5.32;0.90;;;;;;;17.18;75.12;94869.09;5039622;28;20048;-89
2022/09/23 08:24:48;;;;;;;5.22;1.10;;;;;;;17.60;73.99;94869.03;5039888;28;20028;-87
2022/09/23 08:27:13;;;;;;;4.85;1.23;;;;;;;18.04;72.70;94872.00;5039412;28;20070;-88
2022/09/23 08:29:39;;;;;;;2.90;1.20;;;;;;;17.99;66.14;94870.22;5039033;28;20025;-89
2022/09/23 08:32:04;;;;;;;1.65;1.02;;;;;;;18.20;66.58;94872.44;5023266;28;20032;-88
2022/09/23 08:34:30;;;;;;;2.40;1.30;;;;;;;17.92;64.89;94877.81;5039508;28;20033;-89
2022/09/23 08:36:55;;;;;;;5.05;1.30;;;;;;;18.06;62.73;94875.13;5023177;28;20029;-89
2022/09/23 08:39:21;;;;;;;2.05;1.25;;;;;;;18.25;61.85;94880.25;5022986;28;20102;-88
2022/09/23 08:42:01;;;;;;;2.75;1.30;;;;;;;17.77;62.20;94871.81;5023084;28;20029;-89
2022/09/23 08:44:44;;;;;;;3.53;1.25;;;;;;;18.22;59.74;94875.56;5023038;28;20346;-89
2022/09/23 08:47:29;;;;;;;1.55;1.08;;;;;;;17.89;55.33;94868.59;5022942;28;20025;-89
2022/09/23 08:50:00;;;;;;;1.60;1.02;;;;;;;18.32;53.63;94863.91;5022618;28;20028;-91
2022/09/23 08:52:40;;;;;;;2.88;1.25;;;;;;;18.35;56.50;94860.63;5022940;28;20029;-90
2022/09/23 08:55:11;;;;;;;2.63;1.20;;;;;;;17.95;55.59;94867.41;5039343;28;20056;-92
2022/09/23 08:57:51;;;;;;;1.30;1.00;;;;;;;18.67;58.73;94866.72;5022626;28;20394;-91
2022/09/23 09:00:22;;;;;;;2.92;1.35;;;;;;;18.40;57.13;94863.16;5056567;28;20364;-92
2022/09/23 09:02:48;;;;;;;2.35;1.40;;;;;;;18.55;58.27;94864.63;5022808;28;20052;-91
2022/09/23 09:05:17;;;;;;;5.35;1.48;;;;;;;18.72;55.75;94860.47;5022434;28;20025;-91
2022/09/23 09:07:42;;;;;;;4.65;1.13;;;;;;;18.56;54.08;94863.53;5022409;28;20045;-91
2022/09/23 09:10:17;;;;;;;2.75;1.42;;;;;;;18.64;56.42;94852.19;5022196;28;20039;-91
2022/09/23 09:12:46;;;;;;;6.25;1.25;;;;;;;18.90;56.13;94848.84;5022509;28;20033;-91
2022/09/23 09:15:19;;;;;;;3.95;1.42;;;;;;;18.98;55.95;94851.81;5022399;28;20032;-91
2022/09/23 09:18:01;;;;;;;2.22;1.45;;;;;;;19.14;53.72;94852.19;5004007;28;20425;-90
2022/09/23 09:21:08;;;;;;;2.50;1.38;;;;;;;18.81;51.68;94849.91;5018728;28;20057;-91
2022/09/23 09:23:35;;;;;;;4.13;1.15;;;;;;;18.64;55.76;94836.28;5035772;28;20059;-91
2022/09/23 09:26:01;;;;;;;2.55;1.45;;;;;;;18.28;52.75;94839.06;5019125;28;20033;-91
2022/09/23 09:28:46;;;;;;;2.50;1.30;;;;;;;18.97;52.59;94843.09;5035727;28;20071;-91
2022/09/23 09:31:31;;;;;;;4.07;1.20;;;;;;;18.83;53.52;94837.88;5019091;28;20034;-92
2022/09/23 09:34:05;;;;;;;2.30;1.15;;;;;;;19.05;52.84;94837.03;5002733;28;20025;-91
2022/09/23 09:36:36;;;;;;;2.42;1.33;;;;;;;19.02;49.92;94839.53;5019137;28;20358;-91
2022/09/23 09:39:03;;;;;;;2.28;1.30;;;;;;;19.37;49.45;94831.59;5035837;28;20025;-91
2022/09/23 09:41:30;;;;;;;1.65;1.17;;;;;;;18.85;50.17;94834.94;5035138;28;20116;-91
2022/09/23 09:43:58;;;;;;;2.40;1.23;;;;;;;19.39;50.87;94831.31;5018929;28;20025;-91
2022/09/23 09:47:11;;;;;;;1.90;1.10;;;;;;;19.08;52.78;94832.97;5035558;28;20033;-94
2022/09/23 09:49:36;;;;;;;1.88;1.13;;;;;;;19.67;52.41;94836.31;5016612;28;20466;-87
2022/09/23 09:52:21;;;;;;;3.20;1.42;;;;;;;19.69;52.26;94837.53;5036148;28;20025;-88
2022/09/23 09:54:48;;;;;;;1.45;1.00;;;;;;;19.77;50.53;94834.09;5037412;28;20060;-85
2022/09/23 09:58:15;;;;;;;1.88;1.15;;;;;;;19.94;50.99;94837.06;5038755;28;20029;-85
2022/09/23 10:00:42;;;;;;;2.25;1.00;;;;;;;19.65;51.87;94839.28;4993219;28;20037;-85
2022/09/23 10:03:13;;;;;;;1.40;0.82;;;;;;;19.90;51.62;94832.34;5017174;28;20025;-85
2022/09/23 10:05:45;;;;;;;1.85;0.98;;;;;;;19.94;51.62;94837.06;5040576;28;20024;-85
2022/09/23 10:08:33;;;;;;;4.40;1.10;;;;;;;19.17;51.53;94825.03;5058834;28;20123;-85
2022/09/23 10:11:06;;;;;;;3.60;1.40;;;;;;;19.67;51.88;94820.34;5042213;28;20174;-85
2022/09/23 10:13:32;;;;;;;2.65;1.10;;;;;;;19.59;50.43;94828.00;5059829;28;20346;-85
2022/09/23 10:15:59;;;;;;;1.92;1.13;;;;;;;20.03;50.23;94819.22;5041733;28;20025;-86
2022/09/23 10:18:31;;;;;;;2.28;1.02;;;;;;;19.45;51.22;94819.41;5025606;28;20025;-86
2022/09/23 10:21:01;;;;;;;4.82;1.48;;;;;;;19.43;47.66;94814.41;5041903;28;20051;-85
2022/09/23 10:23:28;;;;;;;5.55;1.70;;;;;;;20.20;50.03;94808.53;5025231;28;20028;-86
2022/09/23 10:25:59;;;;;;;5.10;1.10;;;;;;;20.46;49.45;94812.22;5041622;28;20032;-86
2022/09/23 10:28:45;;;;;;;1.27;0.98;;;;;;;20.93;46.19;94818.59;5020905;28;20351;-87
2022/09/23 10:31:17;;;;;;;1.65;1.00;;;;;;;20.91;44.24;94816.25;5005530;28;20036;-87
2022/09/23 10:33:48;;;;;;;1.15;0.80;;;;;;;21.07;44.29;94813.03;5021729;28;20040;-86
2022/09/23 10:36:15;;;;;;;2.53;0.93;;;;;;;20.27;48.87;94804.63;5021677;28;20029;-87
2022/09/23 10:38:41;;;;;;;1.67;0.77;;;;;;;20.96;42.79;94813.41;5039580;28;20021;-87
2022/09/23 10:46:37;;;;;;;3.75;1.00;;;;;;;21.00;39.29;94814.31;5039303;28;20522;-88
2022/09/23 10:49:37;;;;;;;2.17;0.95;;;;;;;21.11;40.89;94806.72;5021596;28;20025;-87
2022/09/23 10:52:30;;;;;;;0.90;0.77;;;;;;;21.15;45.59;94815.63;5021100;28;20037;-87
2022/09/23 10:55:08;;;;;;;1.50;0.70;;;;;;;21.31;43.76;94817.75;5005443;28;20029;-87
2022/09/23 10:57:40;;;;;;;2.17;0.80;;;;;;;21.33;45.97;94810.19;5021253;28;20022;-87
2022/09/23 11:00:22;;;;;;;1.65;1.05;;;;;;;21.44;41.19;94816.69;5038700;28;20033;-87
2022/09/23 11:03:12;;;;;;;1.40;0.98;;;;;;;21.52;41.44;94807.06;5021647;28;20055;-87
2022/09/23 11:06:05;;;;;;;2.63;0.90;;;;;;;21.63;41.72;94806.66;5021057;28;20029;-87
2022/09/23 11:08:36;;;;;;;1.17;0.75;;;;;;;21.79;44.09;94798.88;5038477;28;20033;-87
2022/09/23 11:11:11;;;;;;;1.73;0.90;;;;;;;21.89;41.47;94801.13;5021093;28;20067;-87
2022/09/23 11:13:48;;;;;;;1.20;0.70;;;;;;;22.13;44.03;94794.28;5021115;28;20083;-87
2022/09/23 11:16:28;;;;;;;1.42;1.00;;;;;;;21.84;43.46;94790.66;5038510;28;20075;-87
2022/09/23 11:19:23;;;;;;;1.40;0.93;;;;;;;21.93;43.33;94782.56;5021167;28;20381;-87
2022/09/23 11:21:57;;;;;;;1.35;0.80;;;;;;;21.02;43.39;94780.16;5038403;28;20029;-87
2022/09/23 11:24:28;;;;;;;;;;;;;;;21.51;41.09;94772.75;5021560;28;20052;-87
2022/09/23 11:27:30;;;;;;;2.70;0.90;;;;;;;22.01;42.73;94773.69;5038515;28;19996;-87
2022/09/23 11:30:16;;;;;;;0.90;0.70;;;;;;;21.97;44.04;94772.81;5020739;28;20064;-87
2022/09/23 11:33:06;;;;;;;2.28;1.27;;;;;;;21.54;41.46;94780.88;5004630;28;20044;-88
2022/09/23 11:35:49;;;;;;;2.17;0.90;;;;;;;22.01;40.92;94777.13;5020378;28;20529;-87
2022/09/23 11:38:26;;;;;;;;;;;;;;;22.08;38.62;94778.50;5021278;28;20030;-87
2022/09/23 11:40:58;;;;;;;1.42;1.00;;;;;;;21.92;40.37;94770.34;5038151;28;19995;-88
2022/09/23 11:43:28;;;;;;;1.13;0.80;;;;;;;22.10;40.18;94774.41;5020581;28;20026;-87
2022/09/23 11:45:58;;;;;;;1.88;0.90;;;;;;;21.98;46.23;94767.13;5020822;28;20053;-88
2022/09/23 11:48:35;;;;;;;2.08;1.00;;;;;;;22.01;41.92;94763.78;5020591;28;20119;-87
2022/09/23 11:51:05;;;;;;;2.47;1.02;;;;;;;21.75;44.18;94766.75;5020320;28;20423;-87
2022/09/23 11:53:52;;;;;;;1.48;0.88;;;;;;;22.45;42.32;94765.97;5020446;28;20037;-87
2022/09/23 11:56:35;;;;;;;1.80;0.90;;;;;;;22.75;40.06;94759.66;5020140;28;20036;-87
2022/09/23 11:59:19;;;;;;;1.38;0.80;;;;;;;22.16;37.68;94748.25;5020369;28;20032;-88
2022/09/23 12:01:48;;;;;;;3.97;0.90;;;;;;;22.61;38.74;94745.88;5037511;28;20029;-87
2022/09/23 12:04:34;;;;;;;1.75;1.00;;;;;;;22.55;41.12;94748.75;5020581;28;20029;-87
2022/09/23 12:07:25;;;;;;;2.60;0.80;;;;;;;22.81;39.85;94741.47;5037774;28;20307;-87
2022/09/23 12:10:17;;;;;;;1.98;0.95;;;;;;;22.73;39.62;94738.59;5004167;28;20035;-88
2022/09/23 12:12:48;;;;;;;1.45;0.70;;;;;;;22.69;39.77;94731.59;5015856;28;20051;-88